sensor_id;sensor_type;location;lat;lon;timestamp;temperature;humidity
67799;SHT30;54596;43.216;27.904;2022-08-30T00:00:52;22.99;69.62
67799;SHT30;54596;43.216;27.904;2022-08-30T00:03:29;22.96;69.78
67799;SHT30;54596;43.216;27.904;2022-08-30T00:05:55;22.99;69.82
67799;SHT30;54596;43.216;27.904;2022-08-30T00:08:20;22.99;69.64
67799;SHT30;54596;43.216;27.904;2022-08-30T00:10:46;22.94;69.40
67799;SHT30;54596;43.216;27.904;2022-08-30T00:13:13;22.95;69.37
67799;SHT30;54596;43.216;27.904;2022-08-30T00:15:40;22.94;69.42
67799;SHT30;54596;43.216;27.904;2022-08-30T00:18:07;22.95;69.53
67799;SHT30;54596;43.216;27.904;2022-08-30T00:20:34;22.95;69.65
67799;SHT30;54596;43.216;27.904;2022-08-30T00:23:01;22.94;69.77
67799;SHT30;54596;43.216;27.904;2022-08-30T00:25:26;22.89;69.56
67799;SHT30;54596;43.216;27.904;2022-08-30T00:27:52;22.81;69.69
67799;SHT30;54596;43.216;27.904;2022-08-30T00:30:18;22.78;69.92
67799;SHT30;54596;43.216;27.904;2022-08-30T00:32:44;22.68;70.51
67799;SHT30;54596;43.216;27.904;2022-08-30T00:35:11;22.69;71.94
67799;SHT30;54596;43.216;27.904;2022-08-30T00:37:38;22.68;73.21
67799;SHT30;54596;43.216;27.904;2022-08-30T00:40:05;22.64;74.41
67799;SHT30;54596;43.216;27.904;2022-08-30T00:42:32;22.57;75.46
67799;SHT30;54596;43.216;27.904;2022-08-30T00:44:58;22.53;75.71
67799;SHT30;54596;43.216;27.904;2022-08-30T00:47:24;22.51;75.84
67799;SHT30;54596;43.216;27.904;2022-08-30T00:49:52;22.41;75.22
67799;SHT30;54596;43.216;27.904;2022-08-30T00:52:20;22.39;74.92
67799;SHT30;54596;43.216;27.904;2022-08-30T00:54:47;22.33;74.90
67799;SHT30;54596;43.216;27.904;2022-08-30T00:57:13;22.26;75.10
67799;SHT30;54596;43.216;27.904;2022-08-30T00:59:42;22.23;75.07
67799;SHT30;54596;43.216;27.904;2022-08-30T01:02:08;22.23;75.59
67799;SHT30;54596;43.216;27.904;2022-08-30T01:04:35;22.20;77.08
67799;SHT30;54596;43.216;27.904;2022-08-30T01:07:02;22.16;77.95
67799;SHT30;54596;43.216;27.904;2022-08-30T01:09:28;22.16;78.18
67799;SHT30;54596;43.216;27.904;2022-08-30T01:11:54;22.06;79.04
67799;SHT30;54596;43.216;27.904;2022-08-30T01:14:21;22.06;79.06
67799;SHT30;54596;43.216;27.904;2022-08-30T01:16:48;22.05;79.27
67799;SHT30;54596;43.216;27.904;2022-08-30T01:19:40;21.99;79.13
67799;SHT30;54596;43.216;27.904;2022-08-30T01:22:19;21.95;79.58
67799;SHT30;54596;43.216;27.904;2022-08-30T01:24:45;21.92;79.15
67799;SHT30;54596;43.216;27.904;2022-08-30T01:27:14;21.86;79.12
67799;SHT30;54596;43.216;27.904;2022-08-30T01:29:40;21.81;79.22
67799;SHT30;54596;43.216;27.904;2022-08-30T01:32:17;21.75;79.39
67799;SHT30;54596;43.216;27.904;2022-08-30T01:34:44;21.77;79.14
67799;SHT30;54596;43.216;27.904;2022-08-30T01:37:33;21.74;78.07
67799;SHT30;54596;43.216;27.904;2022-08-30T01:40:00;21.67;76.83
67799;SHT30;54596;43.216;27.904;2022-08-30T01:42:26;21.69;76.14
67799;SHT30;54596;43.216;27.904;2022-08-30T01:44:52;21.64;75.88
67799;SHT30;54596;43.216;27.904;2022-08-30T01:47:18;21.62;75.80
67799;SHT30;54596;43.216;27.904;2022-08-30T01:49:45;21.62;75.42
67799;SHT30;54596;43.216;27.904;2022-08-30T01:52:12;21.61;74.94
67799;SHT30;54596;43.216;27.904;2022-08-30T01:54:40;21.58;75.06
67799;SHT30;54596;43.216;27.904;2022-08-30T01:57:11;21.57;75.80
67799;SHT30;54596;43.216;27.904;2022-08-30T01:59:38;21.62;76.84
67799;SHT30;54596;43.216;27.904;2022-08-30T02:02:05;21.64;77.49
67799;SHT30;54596;43.216;27.904;2022-08-30T02:04:31;21.58;77.78
67799;SHT30;54596;43.216;27.904;2022-08-30T02:06:56;21.57;78.06
67799;SHT30;54596;43.216;27.904;2022-08-30T02:09:22;21.51;78.47
67799;SHT30;54596;43.216;27.904;2022-08-30T02:11:48;21.51;78.65
67799;SHT30;54596;43.216;27.904;2022-08-30T02:14:14;21.41;79.09
67799;SHT30;54596;43.216;27.904;2022-08-30T02:16:40;21.40;79.11
67799;SHT30;54596;43.216;27.904;2022-08-30T02:19:06;21.40;79.17
67799;SHT30;54596;43.216;27.904;2022-08-30T02:21:32;21.44;78.88
67799;SHT30;54596;43.216;27.904;2022-08-30T02:23:57;21.36;78.88
67799;SHT30;54596;43.216;27.904;2022-08-30T02:26:24;21.34;78.52
67799;SHT30;54596;43.216;27.904;2022-08-30T02:28:51;21.27;78.15
67799;SHT30;54596;43.216;27.904;2022-08-30T02:31:18;21.23;78.02
67799;SHT30;54596;43.216;27.904;2022-08-30T02:33:43;21.22;77.76
67799;SHT30;54596;43.216;27.904;2022-08-30T02:36:09;21.19;77.28
67799;SHT30;54596;43.216;27.904;2022-08-30T02:38:35;21.22;76.85
67799;SHT30;54596;43.216;27.904;2022-08-30T02:41:01;21.20;76.49
67799;SHT30;54596;43.216;27.904;2022-08-30T02:43:26;21.24;76.23
67799;SHT30;54596;43.216;27.904;2022-08-30T02:45:52;21.23;75.94
67799;SHT30;54596;43.216;27.904;2022-08-30T02:48:18;21.20;75.95
67799;SHT30;54596;43.216;27.904;2022-08-30T02:50:46;21.12;76.07
67799;SHT30;54596;43.216;27.904;2022-08-30T02:53:12;21.09;76.12
67799;SHT30;54596;43.216;27.904;2022-08-30T02:55:38;21.03;76.16
67799;SHT30;54596;43.216;27.904;2022-08-30T02:58:04;20.95;76.06
67799;SHT30;54596;43.216;27.904;2022-08-30T03:00:30;20.95;75.70
67799;SHT30;54596;43.216;27.904;2022-08-30T03:02:55;20.92;74.86
67799;SHT30;54596;43.216;27.904;2022-08-30T03:05:21;20.94;73.97
67799;SHT30;54596;43.216;27.904;2022-08-30T03:07:47;20.94;73.58
67799;SHT30;54596;43.216;27.904;2022-08-30T03:10:14;20.91;73.20
67799;SHT30;54596;43.216;27.904;2022-08-30T03:12:40;20.92;73.25
67799;SHT30;54596;43.216;27.904;2022-08-30T03:15:07;20.95;73.05
67799;SHT30;54596;43.216;27.904;2022-08-30T03:17:32;20.91;73.05
67799;SHT30;54596;43.216;27.904;2022-08-30T03:19:58;20.86;72.93
67799;SHT30;54596;43.216;27.904;2022-08-30T03:22:25;20.82;73.02
67799;SHT30;54596;43.216;27.904;2022-08-30T03:24:50;20.84;72.74
67799;SHT30;54596;43.216;27.904;2022-08-30T03:27:16;20.85;72.61
67799;SHT30;54596;43.216;27.904;2022-08-30T03:29:41;20.86;72.00
67799;SHT30;54596;43.216;27.904;2022-08-30T03:32:07;20.84;71.74
67799;SHT30;54596;43.216;27.904;2022-08-30T03:34:32;20.82;71.76
67799;SHT30;54596;43.216;27.904;2022-08-30T03:36:58;20.79;71.95
67799;SHT30;54596;43.216;27.904;2022-08-30T03:39:26;20.82;72.19
67799;SHT30;54596;43.216;27.904;2022-08-30T03:41:51;20.82;72.36
67799;SHT30;54596;43.216;27.904;2022-08-30T03:44:17;20.84;72.44
67799;SHT30;54596;43.216;27.904;2022-08-30T03:46:43;20.91;72.55
67799;SHT30;54596;43.216;27.904;2022-08-30T03:49:09;20.95;72.72
67799;SHT30;54596;43.216;27.904;2022-08-30T03:51:34;20.92;73.10
67799;SHT30;54596;43.216;27.904;2022-08-30T03:54:00;20.98;73.19
67799;SHT30;54596;43.216;27.904;2022-08-30T03:56:27;21.02;73.27
67799;SHT30;54596;43.216;27.904;2022-08-30T03:58:52;21.03;73.57
67799;SHT30;54596;43.216;27.904;2022-08-30T04:01:18;21.07;73.93
67799;SHT30;54596;43.216;27.904;2022-08-30T04:03:44;21.13;74.07
67799;SHT30;54596;43.216;27.904;2022-08-30T04:06:09;21.18;74.08
67799;SHT30;54596;43.216;27.904;2022-08-30T04:08:35;21.20;74.17
67799;SHT30;54596;43.216;27.904;2022-08-30T04:11:00;21.20;74.09
67799;SHT30;54596;43.216;27.904;2022-08-30T04:13:27;21.23;74.18
67799;SHT30;54596;43.216;27.904;2022-08-30T04:15:53;21.34;73.48
67799;SHT30;54596;43.216;27.904;2022-08-30T04:18:19;21.39;73.31
67799;SHT30;54596;43.216;27.904;2022-08-30T04:20:45;21.47;73.10
67799;SHT30;54596;43.216;27.904;2022-08-30T04:23:12;21.53;72.78
67799;SHT30;54596;43.216;27.904;2022-08-30T04:25:38;21.54;72.29
67799;SHT30;54596;43.216;27.904;2022-08-30T04:28:05;21.57;71.93
67799;SHT30;54596;43.216;27.904;2022-08-30T04:30:31;21.64;71.24
67799;SHT30;54596;43.216;27.904;2022-08-30T04:32:57;21.67;71.14
67799;SHT30;54596;43.216;27.904;2022-08-30T04:35:23;21.77;70.77
67799;SHT30;54596;43.216;27.904;2022-08-30T04:37:49;21.85;70.51
67799;SHT30;54596;43.216;27.904;2022-08-30T04:40:14;21.86;70.34
67799;SHT30;54596;43.216;27.904;2022-08-30T04:42:41;21.96;70.09
67799;SHT30;54596;43.216;27.904;2022-08-30T04:45:10;22.08;69.77
67799;SHT30;54596;43.216;27.904;2022-08-30T04:47:36;22.13;69.63
67799;SHT30;54596;43.216;27.904;2022-08-30T04:50:04;22.26;68.49
67799;SHT30;54596;43.216;27.904;2022-08-30T04:52:30;22.41;67.87
67799;SHT30;54596;43.216;27.904;2022-08-30T04:54:57;22.44;66.94
67799;SHT30;54596;43.216;27.904;2022-08-30T04:57:24;22.48;66.73
67799;SHT30;54596;43.216;27.904;2022-08-30T04:59:49;22.57;67.05
67799;SHT30;54596;43.216;27.904;2022-08-30T05:02:16;22.65;67.28
67799;SHT30;54596;43.216;27.904;2022-08-30T05:04:42;22.79;66.79
67799;SHT30;54596;43.216;27.904;2022-08-30T05:07:28;22.87;66.59
67799;SHT30;54596;43.216;27.904;2022-08-30T05:09:54;22.98;66.34
67799;SHT30;54596;43.216;27.904;2022-08-30T05:12:20;23.19;65.93
67799;SHT30;54596;43.216;27.904;2022-08-30T05:14:45;23.37;65.68
67799;SHT30;54596;43.216;27.904;2022-08-30T05:17:11;23.67;65.32
67799;SHT30;54596;43.216;27.904;2022-08-30T05:19:36;23.88;64.06
67799;SHT30;54596;43.216;27.904;2022-08-30T05:22:02;24.44;62.16
67799;SHT30;54596;43.216;27.904;2022-08-30T05:24:28;24.89;60.77
67799;SHT30;54596;43.216;27.904;2022-08-30T05:26:57;25.64;58.97
67799;SHT30;54596;43.216;27.904;2022-08-30T05:29:22;27.14;55.89
67799;SHT30;54596;43.216;27.904;2022-08-30T05:31:49;28.43;52.57
67799;SHT30;54596;43.216;27.904;2022-08-30T05:34:14;28.57;52.29
67799;SHT30;54596;43.216;27.904;2022-08-30T05:36:40;27.62;54.04
67799;SHT30;54596;43.216;27.904;2022-08-30T05:39:07;27.61;54.17
67799;SHT30;54596;43.216;27.904;2022-08-30T05:41:33;28.69;52.46
67799;SHT30;54596;43.216;27.904;2022-08-30T05:44:01;28.86;52.17
67799;SHT30;54596;43.216;27.904;2022-08-30T05:46:27;28.79;52.86
67799;SHT30;54596;43.216;27.904;2022-08-30T05:48:57;29.52;51.77
67799;SHT30;54596;43.216;27.904;2022-08-30T05:51:25;31.31;48.97
67799;SHT30;54596;43.216;27.904;2022-08-30T05:53:53;32.79;46.47
67799;SHT30;54596;43.216;27.904;2022-08-30T05:56:20;33.75;44.79
67799;SHT30;54596;43.216;27.904;2022-08-30T05:58:47;34.16;43.91
67799;SHT30;54596;43.216;27.904;2022-08-30T06:01:23;34.27;44.19
67799;SHT30;54596;43.216;27.904;2022-08-30T06:03:49;35.10;43.00
67799;SHT30;54596;43.216;27.904;2022-08-30T06:06:15;35.09;43.33
67799;SHT30;54596;43.216;27.904;2022-08-30T06:08:42;35.58;42.17
67799;SHT30;54596;43.216;27.904;2022-08-30T06:11:14;35.51;42.38
67799;SHT30;54596;43.216;27.904;2022-08-30T06:13:40;35.95;41.49
67799;SHT30;54596;43.216;27.904;2022-08-30T06:16:06;36.82;40.25
67799;SHT30;54596;43.216;27.904;2022-08-30T06:18:32;37.40;38.98
67799;SHT30;54596;43.216;27.904;2022-08-30T06:20:57;38.39;37.59
67799;SHT30;54596;43.216;27.904;2022-08-30T06:23:23;38.81;37.28
67799;SHT30;54596;43.216;27.904;2022-08-30T06:25:49;38.37;37.24
67799;SHT30;54596;43.216;27.904;2022-08-30T06:28:15;38.40;37.31
67799;SHT30;54596;43.216;27.904;2022-08-30T06:30:41;38.47;37.54
67799;SHT30;54596;43.216;27.904;2022-08-30T06:33:08;38.32;37.60
67799;SHT30;54596;43.216;27.904;2022-08-30T06:35:34;38.58;37.33
67799;SHT30;54596;43.216;27.904;2022-08-30T06:38:00;38.64;36.88
67799;SHT30;54596;43.216;27.904;2022-08-30T06:40:25;39.06;36.36
67799;SHT30;54596;43.216;27.904;2022-08-30T06:42:51;39.20;36.59
67799;SHT30;54596;43.216;27.904;2022-08-30T06:45:17;39.39;35.84
67799;SHT30;54596;43.216;27.904;2022-08-30T06:47:44;39.51;36.08
67799;SHT30;54596;43.216;27.904;2022-08-30T06:50:10;39.30;36.37
67799;SHT30;54596;43.216;27.904;2022-08-30T06:52:37;38.46;37.08
67799;SHT30;54596;43.216;27.904;2022-08-30T06:55:03;38.67;36.86
67799;SHT30;54596;43.216;27.904;2022-08-30T06:57:28;38.88;37.12
67799;SHT30;54596;43.216;27.904;2022-08-30T06:59:55;39.40;36.33
67799;SHT30;54596;43.216;27.904;2022-08-30T07:02:21;40.53;35.08
67799;SHT30;54596;43.216;27.904;2022-08-30T07:04:46;41.30;34.76
67799;SHT30;54596;43.216;27.904;2022-08-30T07:07:13;41.73;34.06
67799;SHT30;54596;43.216;27.904;2022-08-30T07:09:39;41.80;35.13
67799;SHT30;54596;43.216;27.904;2022-08-30T07:12:09;41.71;35.54
67799;SHT30;54596;43.216;27.904;2022-08-30T07:14:35;42.70;33.50
67799;SHT30;54596;43.216;27.904;2022-08-30T07:17:01;43.22;33.43
67799;SHT30;54596;43.216;27.904;2022-08-30T07:19:26;43.43;33.45
67799;SHT30;54596;43.216;27.904;2022-08-30T07:21:52;43.02;34.13
67799;SHT30;54596;43.216;27.904;2022-08-30T07:24:19;44.18;33.25
67799;SHT30;54596;43.216;27.904;2022-08-30T07:26:47;44.71;32.55
67799;SHT30;54596;43.216;27.904;2022-08-30T07:29:15;44.98;33.18
67799;SHT30;54596;43.216;27.904;2022-08-30T07:31:41;45.77;32.52
67799;SHT30;54596;43.216;27.904;2022-08-30T07:34:07;45.34;33.05
67799;SHT30;54596;43.216;27.904;2022-08-30T07:36:34;45.26;33.46
67799;SHT30;54596;43.216;27.904;2022-08-30T07:39:00;44.77;33.67
67799;SHT30;54596;43.216;27.904;2022-08-30T07:41:29;45.38;33.27
67799;SHT30;54596;43.216;27.904;2022-08-30T07:43:55;45.98;32.94
67799;SHT30;54596;43.216;27.904;2022-08-30T07:46:22;46.21;32.52
67799;SHT30;54596;43.216;27.904;2022-08-30T07:48:48;45.32;33.51
67799;SHT30;54596;43.216;27.904;2022-08-30T07:51:18;45.74;32.91
67799;SHT30;54596;43.216;27.904;2022-08-30T07:53:44;45.62;33.17
67799;SHT30;54596;43.216;27.904;2022-08-30T07:56:11;46.51;32.23
67799;SHT30;54596;43.216;27.904;2022-08-30T07:58:37;46.38;31.97
67799;SHT30;54596;43.216;27.904;2022-08-30T08:01:05;45.50;32.77
67799;SHT30;54596;43.216;27.904;2022-08-30T08:03:32;45.64;32.58
67799;SHT30;54596;43.216;27.904;2022-08-30T08:06:00;45.90;32.93
67799;SHT30;54596;43.216;27.904;2022-08-30T08:08:26;45.68;32.37
67799;SHT30;54596;43.216;27.904;2022-08-30T08:10:52;44.81;33.98
67799;SHT30;54596;43.216;27.904;2022-08-30T08:13:17;44.47;34.37
67799;SHT30;54596;43.216;27.904;2022-08-30T08:15:43;44.19;34.98
67799;SHT30;54596;43.216;27.904;2022-08-30T08:18:08;43.23;35.94
67799;SHT30;54596;43.216;27.904;2022-08-30T08:20:35;42.12;37.73
67799;SHT30;54596;43.216;27.904;2022-08-30T08:23:00;41.36;38.50
67799;SHT30;54596;43.216;27.904;2022-08-30T08:25:26;39.49;41.04
67799;SHT30;54596;43.216;27.904;2022-08-30T08:27:52;38.82;42.45
67799;SHT30;54596;43.216;27.904;2022-08-30T08:30:19;37.82;43.54
67799;SHT30;54596;43.216;27.904;2022-08-30T08:32:46;37.16;44.37
67799;SHT30;54596;43.216;27.904;2022-08-30T08:35:12;36.71;44.52
67799;SHT30;54596;43.216;27.904;2022-08-30T08:37:39;36.13;44.58
67799;SHT30;54596;43.216;27.904;2022-08-30T08:40:06;35.68;45.11
67799;SHT30;54596;43.216;27.904;2022-08-30T08:50:54;34.24;42.57
67799;SHT30;54596;43.216;27.904;2022-08-30T08:53:39;34.51;42.82
67799;SHT30;54596;43.216;27.904;2022-08-30T08:56:13;34.28;43.21
67799;SHT30;54596;43.216;27.904;2022-08-30T08:58:56;34.17;42.57
67799;SHT30;54596;43.216;27.904;2022-08-30T09:01:27;33.72;44.18
67799;SHT30;54596;43.216;27.904;2022-08-30T09:03:55;33.64;45.08
67799;SHT30;54596;43.216;27.904;2022-08-30T09:06:51;33.37;46.15
67799;SHT30;54596;43.216;27.904;2022-08-30T09:09:22;33.13;47.70
67799;SHT30;54596;43.216;27.904;2022-08-30T09:11:50;32.78;47.55
67799;SHT30;54596;43.216;27.904;2022-08-30T09:14:19;32.40;47.05
67799;SHT30;54596;43.216;27.904;2022-08-30T09:16:50;32.24;45.95
67799;SHT30;54596;43.216;27.904;2022-08-30T09:19:31;31.75;47.04
67799;SHT30;54596;43.216;27.904;2022-08-30T09:21:59;31.57;48.66
67799;SHT30;54596;43.216;27.904;2022-08-30T09:24:25;31.58;49.67
67799;SHT30;54596;43.216;27.904;2022-08-30T09:26:51;31.39;49.66
67799;SHT30;54596;43.216;27.904;2022-08-30T09:29:17;31.33;51.03
67799;SHT30;54596;43.216;27.904;2022-08-30T09:31:50;31.11;50.94
67799;SHT30;54596;43.216;27.904;2022-08-30T09:34:20;30.93;51.74
67799;SHT30;54596;43.216;27.904;2022-08-30T09:36:49;30.96;53.44
67799;SHT30;54596;43.216;27.904;2022-08-30T09:39:30;30.74;52.88
67799;SHT30;54596;43.216;27.904;2022-08-30T09:42:18;30.55;53.12
67799;SHT30;54596;43.216;27.904;2022-08-30T09:44:44;30.35;57.51
67799;SHT30;54596;43.216;27.904;2022-08-30T09:47:22;30.13;55.65
67799;SHT30;54596;43.216;27.904;2022-08-30T09:50:09;30.03;56.53
67799;SHT30;54596;43.216;27.904;2022-08-30T09:53:11;30.17;56.53
67799;SHT30;54596;43.216;27.904;2022-08-30T10:00:27;30.00;60.33
67799;SHT30;54596;43.216;27.904;2022-08-30T10:03:29;29.73;61.42
67799;SHT30;54596;43.216;27.904;2022-08-30T10:06:05;29.54;63.03
67799;SHT30;54596;43.216;27.904;2022-08-30T10:09:05;29.33;64.11
67799;SHT30;54596;43.216;27.904;2022-08-30T10:11:55;29.27;66.31
67799;SHT30;54596;43.216;27.904;2022-08-30T10:20:02;29.69;66.89
67799;SHT30;54596;43.216;27.904;2022-08-30T10:22:34;29.69;65.49
67799;SHT30;54596;43.216;27.904;2022-08-30T10:25:16;29.51;68.80
67799;SHT30;54596;43.216;27.904;2022-08-30T10:27:54;29.34;69.52
67799;SHT30;54596;43.216;27.904;2022-08-30T10:30:21;29.14;68.05
67799;SHT30;54596;43.216;27.904;2022-08-30T10:35:19;28.91;68.94
67799;SHT30;54596;43.216;27.904;2022-08-30T10:38:09;28.91;68.98
67799;SHT30;54596;43.216;27.904;2022-08-30T10:40:38;28.86;67.65
67799;SHT30;54596;43.216;27.904;2022-08-30T10:43:33;28.78;68.60
67799;SHT30;54596;43.216;27.904;2022-08-30T10:46:09;28.76;68.67
67799;SHT30;54596;43.216;27.904;2022-08-30T10:48:40;28.89;69.40
67799;SHT30;54596;43.216;27.904;2022-08-30T10:51:26;29.04;69.26
67799;SHT30;54596;43.216;27.904;2022-08-30T10:54:07;28.93;70.04
67799;SHT30;54596;43.216;27.904;2022-08-30T10:56:36;29.10;68.62
67799;SHT30;54596;43.216;27.904;2022-08-30T10:59:04;29.33;69.27
67799;SHT30;54596;43.216;27.904;2022-08-30T11:01:46;29.30;66.78
67799;SHT30;54596;43.216;27.904;2022-08-30T11:07:27;28.99;68.85
67799;SHT30;54596;43.216;27.904;2022-08-30T11:10:55;28.79;70.26
67799;SHT30;54596;43.216;27.904;2022-08-30T11:13:05;28.91;68.84
67799;SHT30;54596;43.216;27.904;2022-08-30T11:15:35;28.89;68.73
67799;SHT30;54596;43.216;27.904;2022-08-30T11:18:10;28.83;67.99
67799;SHT30;54596;43.216;27.904;2022-08-30T11:23:28;28.88;66.95
67799;SHT30;54596;43.216;27.904;2022-08-30T11:33:42;28.66;69.81
67799;SHT30;54596;43.216;27.904;2022-08-30T11:36:11;28.43;69.20
67799;SHT30;54596;43.216;27.904;2022-08-30T11:41:37;28.49;69.40
67799;SHT30;54596;43.216;27.904;2022-08-30T11:46:47;28.68;68.48
67799;SHT30;54596;43.216;27.904;2022-08-30T11:54:34;28.52;68.42
67799;SHT30;54596;43.216;27.904;2022-08-30T12:00:13;28.62;68.32
67799;SHT30;54596;43.216;27.904;2022-08-30T12:08:02;28.57;68.91
67799;SHT30;54596;43.216;27.904;2022-08-30T12:13:02;28.40;69.63
67799;SHT30;54596;43.216;27.904;2022-08-30T12:15:55;28.33;70.62
67799;SHT30;54596;43.216;27.904;2022-08-30T12:18:58;28.41;70.34
67799;SHT30;54596;43.216;27.904;2022-08-30T12:21:30;28.51;69.93
67799;SHT30;54596;43.216;27.904;2022-08-30T12:26:29;28.62;70.55
67799;SHT30;54596;43.216;27.904;2022-08-30T12:32:14;28.71;69.48
67799;SHT30;54596;43.216;27.904;2022-08-30T12:34:49;28.65;69.86
67799;SHT30;54596;43.216;27.904;2022-08-30T12:42:38;28.54;69.94
67799;SHT30;54596;43.216;27.904;2022-08-30T12:45:14;28.41;70.73
67799;SHT30;54596;43.216;27.904;2022-08-30T12:47:56;28.41;70.90
67799;SHT30;54596;43.216;27.904;2022-08-30T12:50:29;28.28;71.24
67799;SHT30;54596;43.216;27.904;2022-08-30T12:53:23;28.36;71.23
67799;SHT30;54596;43.216;27.904;2022-08-30T12:56:00;28.38;70.74
67799;SHT30;54596;43.216;27.904;2022-08-30T12:58:41;28.34;71.83
67799;SHT30;54596;43.216;27.904;2022-08-30T13:01:17;28.16;73.10
67799;SHT30;54596;43.216;27.904;2022-08-30T13:09:41;28.16;74.61
67799;SHT30;54596;43.216;27.904;2022-08-30T13:12:28;28.09;74.92
67799;SHT30;54596;43.216;27.904;2022-08-30T13:15:18;28.20;74.90
67799;SHT30;54596;43.216;27.904;2022-08-30T13:17:45;28.16;75.08
67799;SHT30;54596;43.216;27.904;2022-08-30T13:22:41;27.88;75.92
67799;SHT30;54596;43.216;27.904;2022-08-30T13:25:09;27.89;75.83
67799;SHT30;54596;43.216;27.904;2022-08-30T13:27:37;27.86;75.72
67799;SHT30;54596;43.216;27.904;2022-08-30T13:30:10;27.84;75.72
67799;SHT30;54596;43.216;27.904;2022-08-30T13:32:36;27.84;76.13
67799;SHT30;54596;43.216;27.904;2022-08-30T13:35:04;27.78;75.89
67799;SHT30;54596;43.216;27.904;2022-08-30T13:37:30;27.84;76.04
67799;SHT30;54596;43.216;27.904;2022-08-30T13:39:56;27.85;76.48
67799;SHT30;54596;43.216;27.904;2022-08-30T13:42:22;27.79;75.74
67799;SHT30;54596;43.216;27.904;2022-08-30T13:44:47;27.82;75.84
67799;SHT30;54596;43.216;27.904;2022-08-30T13:47:13;27.82;76.60
67799;SHT30;54596;43.216;27.904;2022-08-30T13:49:39;27.86;76.25
67799;SHT30;54596;43.216;27.904;2022-08-30T13:52:08;27.82;76.71
67799;SHT30;54596;43.216;27.904;2022-08-30T13:54:35;27.81;75.83
67799;SHT30;54596;43.216;27.904;2022-08-30T13:57:00;27.90;74.69
67799;SHT30;54596;43.216;27.904;2022-08-30T13:59:26;28.02;75.17
67799;SHT30;54596;43.216;27.904;2022-08-30T14:01:53;27.95;75.48
67799;SHT30;54596;43.216;27.904;2022-08-30T14:04:20;28.02;76.33
67799;SHT30;54596;43.216;27.904;2022-08-30T14:06:46;28.02;73.56
67799;SHT30;54596;43.216;27.904;2022-08-30T14:09:12;28.21;74.05
67799;SHT30;54596;43.216;27.904;2022-08-30T14:11:39;28.06;74.09
67799;SHT30;54596;43.216;27.904;2022-08-30T14:14:05;27.92;73.92
67799;SHT30;54596;43.216;27.904;2022-08-30T14:16:31;28.05;74.73
67799;SHT30;54596;43.216;27.904;2022-08-30T14:18:58;27.99;74.51
67799;SHT30;54596;43.216;27.904;2022-08-30T14:21:25;28.02;73.06
67799;SHT30;54596;43.216;27.904;2022-08-30T14:23:54;28.10;73.88
67799;SHT30;54596;43.216;27.904;2022-08-30T14:26:26;27.92;75.15
67799;SHT30;54596;43.216;27.904;2022-08-30T14:28:53;27.93;75.17
67799;SHT30;54596;43.216;27.904;2022-08-30T14:31:18;27.99;75.46
67799;SHT30;54596;43.216;27.904;2022-08-30T14:33:44;28.06;75.30
67799;SHT30;54596;43.216;27.904;2022-08-30T14:36:09;28.00;76.28
67799;SHT30;54596;43.216;27.904;2022-08-30T14:38:36;27.88;76.17
67799;SHT30;54596;43.216;27.904;2022-08-30T14:41:03;27.75;77.11
67799;SHT30;54596;43.216;27.904;2022-08-30T14:43:29;27.66;77.87
67799;SHT30;54596;43.216;27.904;2022-08-30T14:45:57;27.79;77.32
67799;SHT30;54596;43.216;27.904;2022-08-30T14:48:23;27.73;76.50
67799;SHT30;54596;43.216;27.904;2022-08-30T14:50:49;27.78;76.45
67799;SHT30;54596;43.216;27.904;2022-08-30T14:53:14;27.71;77.15
67799;SHT30;54596;43.216;27.904;2022-08-30T14:55:40;27.68;77.77
67799;SHT30;54596;43.216;27.904;2022-08-30T14:58:05;27.54;78.27
67799;SHT30;54596;43.216;27.904;2022-08-30T15:00:33;27.48;78.94
67799;SHT30;54596;43.216;27.904;2022-08-30T15:02:58;27.45;79.01
67799;SHT30;54596;43.216;27.904;2022-08-30T15:05:24;27.47;78.41
67799;SHT30;54596;43.216;27.904;2022-08-30T15:07:50;27.48;78.79
67799;SHT30;54596;43.216;27.904;2022-08-30T15:10:18;27.50;78.32
67799;SHT30;54596;43.216;27.904;2022-08-30T15:12:49;27.51;78.72
67799;SHT30;54596;43.216;27.904;2022-08-30T15:15:18;27.52;78.52
67799;SHT30;54596;43.216;27.904;2022-08-30T15:17:45;27.58;78.28
67799;SHT30;54596;43.216;27.904;2022-08-30T15:20:11;27.59;78.22
67799;SHT30;54596;43.216;27.904;2022-08-30T15:22:37;27.66;76.74
67799;SHT30;54596;43.216;27.904;2022-08-30T15:25:04;27.66;77.49
67799;SHT30;54596;43.216;27.904;2022-08-30T15:27:29;27.50;77.23
67799;SHT30;54596;43.216;27.904;2022-08-30T15:29:55;27.48;77.58
67799;SHT30;54596;43.216;27.904;2022-08-30T15:32:20;27.47;77.17
67799;SHT30;54596;43.216;27.904;2022-08-30T15:34:46;27.43;75.54
67799;SHT30;54596;43.216;27.904;2022-08-30T15:37:11;27.33;76.45
67799;SHT30;54596;43.216;27.904;2022-08-30T15:39:37;27.29;77.44
67799;SHT30;54596;43.216;27.904;2022-08-30T15:42:02;27.27;78.20
67799;SHT30;54596;43.216;27.904;2022-08-30T15:44:29;27.23;78.95
67799;SHT30;54596;43.216;27.904;2022-08-30T15:46:55;27.18;78.81
67799;SHT30;54596;43.216;27.904;2022-08-30T15:49:22;27.16;79.87
67799;SHT30;54596;43.216;27.904;2022-08-30T15:51:49;27.09;79.33
67799;SHT30;54596;43.216;27.904;2022-08-30T15:54:18;27.03;80.37
67799;SHT30;54596;43.216;27.904;2022-08-30T15:56:45;26.98;80.58
67799;SHT30;54596;43.216;27.904;2022-08-30T15:59:11;27.27;78.82
67799;SHT30;54596;43.216;27.904;2022-08-30T16:01:40;27.34;77.98
67799;SHT30;54596;43.216;27.904;2022-08-30T16:04:05;27.50;76.13
67799;SHT30;54596;43.216;27.904;2022-08-30T16:06:34;27.61;73.76
67799;SHT30;54596;43.216;27.904;2022-08-30T16:09:03;27.79;73.64
67799;SHT30;54596;43.216;27.904;2022-08-30T16:11:28;27.65;74.54
67799;SHT30;54596;43.216;27.904;2022-08-30T16:13:55;27.44;76.10
67799;SHT30;54596;43.216;27.904;2022-08-30T16:16:22;27.52;76.49
67799;SHT30;54596;43.216;27.904;2022-08-30T16:18:49;27.54;75.89
67799;SHT30;54596;43.216;27.904;2022-08-30T16:21:34;27.41;76.86
67799;SHT30;54596;43.216;27.904;2022-08-30T16:24:05;27.31;78.08
67799;SHT30;54596;43.216;27.904;2022-08-30T16:26:33;27.45;77.76
67799;SHT30;54596;43.216;27.904;2022-08-30T16:28:59;27.23;78.71
67799;SHT30;54596;43.216;27.904;2022-08-30T16:31:27;27.34;78.62
67799;SHT30;54596;43.216;27.904;2022-08-30T16:33:53;27.33;79.09
67799;SHT30;54596;43.216;27.904;2022-08-30T16:36:20;27.23;79.34
67799;SHT30;54596;43.216;27.904;2022-08-30T16:38:46;27.10;80.01
67799;SHT30;54596;43.216;27.904;2022-08-30T16:41:14;27.02;80.66